Point Baker, Alaska
Current Conditions -  °F | °C
As of 9:36 PM on Tuesday 27 Jan 2015 (Local Time) from PAPG Reporting Station
Overcast Overcast  
Wind Chill: 34°   Ceiling: 4000
Heat Index: 34°   Visibility: 10mi
Dew Point: 28°   Wind: 3mph
Humidity: 81%   Direction: 170°S
Pressure: 30.15"   Gusts: NA
Location:  56.35°N, 133.61°W
Report Text: PAPG 280636Z 17003KT 10SM OVC040 01/M02 A3015 RMK AO1
Loading
Personal Weather Stations






























Interactive Weather Map New forecast layout! Learn more

10-Day Weather Forecast

Advertisements
Track Severe Weather on mobile